createdAt,value
2018-01-31T01:52:21.006Z,98450.90
2018-01-31T01:53:36.744Z,98420.64
2018-01-31T01:55:13.098Z,98417.64
2018-01-31T01:56:50.220Z,98381.30
2018-01-31T01:58:26.481Z,98386.13
2018-01-31T02:00:05.398Z,98388.34
2018-01-31T02:01:43.309Z,98350.31
2018-01-31T02:03:20.525Z,98379.58
2018-01-31T02:04:57.118Z,98413.29
2018-01-31T02:06:38.872Z,98454.45
2018-01-31T02:08:16.326Z,98408.41
2018-01-31T02:09:52.619Z,98262.96
2018-01-31T02:11:29.848Z,98310.07
2018-01-31T02:13:06.627Z,98338.55
2018-01-31T02:14:43.070Z,98331.55
2018-01-31T02:16:19.884Z,98467.20
2018-01-31T02:17:56.795Z,98565.66
2018-01-31T02:19:33.465Z,98588.33
2018-01-31T02:21:10.918Z,98540.64
2018-01-31T02:22:48.297Z,98510.94
2018-01-31T02:24:24.740Z,98458.38
2018-01-31T02:26:01.722Z,98485.95
2018-01-31T02:27:39.213Z,98488.23
2018-01-31T02:29:15.729Z,98452.78
2018-01-31T02:30:52.532Z,98455.84
2018-01-31T02:32:30.081Z,98449.20
2018-01-31T02:34:06.484Z,98452.69
2018-01-31T02:35:43.575Z,98442.22
2018-01-31T02:37:20.694Z,98456.27
2018-01-31T02:40:02.984Z,98458.49
2018-01-31T02:41:39.304Z,98367.91
2018-01-31T02:43:15.578Z,98390.63
2018-01-31T02:44:52.324Z,98447.06
2018-01-31T02:46:29.141Z,98412.48
2018-01-31T02:48:05.444Z,98476.84
2018-01-31T02:49:41.938Z,98498.73
2018-01-31T02:51:19.457Z,98521.91
2018-01-31T02:52:55.961Z,98648.97
2018-01-31T02:54:32.212Z,98705.44
2018-01-31T02:56:08.487Z,98723.81
2018-01-31T02:57:46.059Z,98724.70
2018-01-31T02:59:23.193Z,98728.26
2018-01-31T03:01:00.216Z,98738.75
2018-01-31T03:02:37.585Z,98741.84
2018-01-31T03:04:14.314Z,98668.66
2018-01-31T03:05:50.683Z,98590.66
2018-01-31T03:07:27.038Z,98673.08
2018-01-31T03:09:03.458Z,98668.64
2018-01-31T03:10:40.166Z,98664.67
2018-01-31T03:12:16.528Z,98655.46
2018-01-31T03:13:53.409Z,98640.62
2018-01-31T03:15:30.146Z,98616.97
2018-01-31T03:17:06.866Z,98607.75
2018-01-31T03:18:43.221Z,98623.98
2018-01-31T03:20:19.915Z,98648.91
2018-01-31T03:21:56.357Z,98672.13
2018-01-31T03:23:33.166Z,98657.25
2018-01-31T03:25:09.451Z,98692.75
2018-01-31T03:26:45.898Z,98719.07
2018-01-31T03:28:23.068Z,98710.75
2018-01-31T03:29:59.982Z,98703.70
2018-01-31T03:31:36.623Z,98696.68
2018-01-31T03:33:13.032Z,98764.27
2018-01-31T03:34:50.168Z,98782.19
2018-01-31T03:36:27.035Z,98808.06
2018-01-31T03:38:03.467Z,98839.60
2018-01-31T03:39:39.806Z,98858.52
2018-01-31T03:41:16.286Z,98863.28
2018-01-31T03:42:52.887Z,98847.93
2018-01-31T03:44:29.212Z,98892.75
2018-01-31T03:46:06.060Z,98923.47
2018-01-31T03:47:42.365Z,98908.98
2018-01-31T03:49:19.982Z,98922.14
2018-01-31T03:50:56.581Z,98958.59
2018-01-31T03:52:35.418Z,98994.13
2018-01-31T03:54:11.754Z,98964.75
2018-01-31T03:55:48.348Z,99008.16
2018-01-31T03:57:25.363Z,99006.83
2018-01-31T03:59:02.051Z,99033.58
2018-01-31T04:00:38.410Z,99002.02
2018-01-31T04:02:15.543Z,99066.66
2018-01-31T04:03:52.518Z,99099.55
2018-01-31T04:05:29.581Z,99114.91
2018-01-31T04:07:06.112Z,99143.92
2018-01-31T04:08:43.252Z,99125.03
2018-01-31T04:10:19.537Z,99052.10
2018-01-31T04:11:56.274Z,99044.22
2018-01-31T04:13:33.311Z,99067.91
2018-01-31T04:15:11.669Z,99132.06
2018-01-31T04:16:48.018Z,99157.07
2018-01-31T04:18:25.131Z,99186.53
2018-01-31T04:20:01.448Z,99180.80
2018-01-31T04:21:38.997Z,99166.31
2018-01-31T04:23:16.133Z,99154.87
2018-01-31T04:24:52.415Z,99079.80
2018-01-31T04:26:28.638Z,99098.27
2018-01-31T04:28:05.777Z,99122.86
2018-01-31T04:29:42.150Z,99125.09
2018-01-31T04:31:19.318Z,99104.85
2018-01-31T04:32:55.696Z,99056.12
2018-01-31T04:34:32.534Z,99064.86
2018-01-31T04:36:09.080Z,99135.59
2018-01-31T04:37:45.344Z,99190.55
2018-01-31T04:39:21.607Z,99230.10
2018-01-31T04:40:58.471Z,99236.27
2018-01-31T04:42:34.769Z,99241.52
2018-01-31T04:44:11.023Z,99251.72
2018-01-31T04:45:47.371Z,99242.88
2018-01-31T04:47:23.962Z,99265.31
2018-01-31T04:49:00.294Z,99290.83
2018-01-31T04:50:36.859Z,99282.91
2018-01-31T04:52:13.582Z,99271.95
2018-01-31T04:53:51.402Z,99258.24
2018-01-31T04:55:27.832Z,99258.24
2018-01-31T04:57:04.424Z,99244.65
2018-01-31T04:58:40.723Z,99267.95
2018-01-31T05:00:19.717Z,99264.88
2018-01-31T05:01:56.808Z,99265.75
2018-01-31T05:03:33.108Z,99275.02
2018-01-31T05:05:09.339Z,99289.92
2018-01-31T05:06:46.062Z,99271.10
2018-01-31T05:08:22.352Z,99204.12
2018-01-31T05:09:59.459Z,99137.83
2018-01-31T05:11:35.822Z,99135.69
2018-01-31T05:13:12.071Z,99196.34
2018-01-31T05:14:48.282Z,99159.41
2018-01-31T05:16:25.583Z,99111.91
2018-01-31T05:18:01.937Z,99170.84
2018-01-31T05:19:38.679Z,99218.77
2018-01-31T05:21:14.979Z,99228.01
2018-01-31T05:22:52.066Z,99213.03
2018-01-31T05:24:28.251Z,99240.75
2018-01-31T05:26:05.003Z,99296.61
2018-01-31T05:27:41.316Z,99351.59
2018-01-31T05:29:17.622Z,99337.06
2018-01-31T05:30:54.041Z,99337.87
2018-01-31T05:32:31.713Z,99337.03
2018-01-31T05:34:08.027Z,99292.64
2018-01-31T05:35:45.170Z,99253.95
2018-01-31T05:37:21.520Z,99172.64
2018-01-31T05:38:58.483Z,99246.92
2018-01-31T05:40:34.702Z,99262.29
2018-01-31T05:42:11.840Z,99284.78
2018-01-31T05:43:48.109Z,99271.56
2018-01-31T05:45:26.959Z,99220.55
2018-01-31T05:47:04.250Z,99285.19
2018-01-31T05:48:40.586Z,99285.68
2018-01-31T05:50:17.006Z,99277.28
2018-01-31T05:51:54.141Z,99279.50
2018-01-31T05:53:31.537Z,99281.25
2018-01-31T05:55:07.962Z,99301.06
2018-01-31T05:56:44.200Z,99277.30
2018-01-31T05:58:21.749Z,99290.46
2018-01-31T05:59:58.488Z,99279.06
2018-01-31T06:01:35.012Z,99274.23
2018-01-31T06:03:12.210Z,99312.94
2018-01-31T06:04:49.045Z,99255.35
2018-01-31T06:06:25.388Z,99283.50
2018-01-31T06:08:02.747Z,99289.22
2018-01-31T06:09:39.102Z,99224.58
2018-01-31T06:11:16.050Z,99159.52
2018-01-31T06:12:53.062Z,99090.12
2018-01-31T06:14:30.112Z,99098.84
2018-01-31T06:16:07.547Z,99098.00
2018-01-31T06:17:44.314Z,99183.64
2018-01-31T06:19:20.649Z,99191.20
2018-01-31T06:20:56.994Z,99217.54
2018-01-31T06:22:33.313Z,99227.23
2018-01-31T06:24:09.615Z,99209.19
2018-01-31T06:25:50.481Z,99114.24
2018-01-31T06:27:27.503Z,99172.75
2018-01-31T06:29:03.791Z,99251.84
2018-01-31T06:30:40.299Z,99292.77
2018-01-31T06:32:16.591Z,99310.75
2018-01-31T06:33:52.894Z,99288.80
2018-01-31T06:35:29.582Z,99253.61
2018-01-31T06:37:05.966Z,99236.95
2018-01-31T06:38:42.271Z,99266.37
2018-01-31T06:40:18.731Z,99262.40
2018-01-31T06:41:55.479Z,99234.28
2018-01-31T06:43:32.453Z,99270.80
2018-01-31T06:45:08.790Z,99257.99
2018-01-31T06:46:45.413Z,99184.19
2018-01-31T06:48:23.393Z,99177.98
2018-01-31T06:50:00.227Z,99243.06
2018-01-31T06:51:36.528Z,99248.80
2018-01-31T06:53:12.784Z,99165.70
2018-01-31T06:54:49.575Z,99196.47
2018-01-31T06:56:26.748Z,99170.08
2018-01-31T06:58:03.102Z,99137.61
2018-01-31T06:59:39.407Z,99167.50
2018-01-31T07:01:16.340Z,99169.67
2018-01-31T07:02:59.061Z,99148.10
2018-01-31T07:04:35.434Z,99104.22
2018-01-31T07:06:12.267Z,99101.13
2018-01-31T07:07:49.052Z,99115.17
2018-01-31T07:09:25.487Z,99144.67
2018-01-31T07:11:01.803Z,99126.22
2018-01-31T07:12:38.087Z,99095.88
2018-01-31T07:14:15.135Z,99065.56
2018-01-31T07:15:51.959Z,99085.80
2018-01-31T07:17:29.104Z,99128.86
2018-01-31T07:19:05.469Z,99136.73
2018-01-31T07:20:42.234Z,99133.20
2018-01-31T07:22:19.047Z,99142.45
2018-01-31T07:23:55.476Z,99167.52
2018-01-31T07:25:32.122Z,99143.77
2018-01-31T07:27:09.012Z,99092.40
2018-01-31T07:28:45.344Z,99078.33
2018-01-31T07:30:22.909Z,99062.55
2018-01-31T07:32:00.669Z,99064.69
2018-01-31T07:33:37.550Z,99045.38
2018-01-31T07:35:14.067Z,99066.92
2018-01-31T07:36:51.234Z,99041.88
2018-01-31T07:38:28.558Z,99033.57
2018-01-31T07:40:05.679Z,98985.25
2018-01-31T07:41:42.035Z,98975.53
2018-01-31T07:43:18.463Z,99017.34
2018-01-31T07:44:54.911Z,99038.00
2018-01-31T07:46:31.911Z,99044.55
2018-01-31T07:48:08.205Z,99070.45
2018-01-31T07:49:44.439Z,99103.86
2018-01-31T07:51:20.723Z,99099.44
2018-01-31T07:52:57.534Z,99042.81
2018-01-31T07:54:35.027Z,98961.12
2018-01-31T07:56:12.220Z,99049.84
2018-01-31T07:57:48.582Z,99064.31
2018-01-31T07:59:25.236Z,99037.54
2018-01-31T08:01:01.793Z,99097.23
2018-01-31T08:02:38.857Z,99148.69
2018-01-31T08:04:16.855Z,99126.22
2018-01-31T08:05:53.646Z,99108.21
2018-01-31T08:07:30.036Z,99117.97
2018-01-31T08:09:07.092Z,99147.77
2018-01-31T08:10:44.359Z,99110.81
2018-01-31T08:12:21.172Z,99136.39
2018-01-31T08:13:57.553Z,99169.29
2018-01-31T08:15:35.029Z,99170.19
2018-01-31T08:17:11.448Z,99057.77
2018-01-31T08:18:48.064Z,99080.97
2018-01-31T08:20:25.136Z,99127.12
2018-01-31T08:22:02.701Z,99145.56
2018-01-31T08:23:39.075Z,99159.70
2018-01-31T08:25:15.424Z,99240.97
2018-01-31T08:26:51.777Z,99234.83
2018-01-31T08:28:28.712Z,99168.45
2018-01-31T08:30:05.347Z,99213.27
2018-01-31T08:31:42.159Z,99233.52
2018-01-31T08:33:19.759Z,99237.10
2018-01-31T08:34:56.925Z,99163.20
2018-01-31T08:36:33.344Z,99121.44
2018-01-31T08:38:10.210Z,99171.54
2018-01-31T08:39:46.581Z,99200.56
2018-01-31T08:41:23.133Z,99265.25
2018-01-31T08:42:59.599Z,99218.56
2018-01-31T08:44:36.952Z,99268.72
2018-01-31T08:46:14.116Z,99247.16
2018-01-31T08:47:50.553Z,99184.73
2018-01-31T08:49:27.586Z,99215.58
2018-01-31T08:51:04.341Z,99231.75
2018-01-31T08:52:41.004Z,99238.84
2018-01-31T08:54:17.426Z,99250.70
2018-01-31T08:55:53.842Z,99248.06
2018-01-31T08:57:30.717Z,99255.52
2018-01-31T08:59:07.299Z,99234.03
2018-01-31T09:00:44.591Z,99246.29
2018-01-31T09:02:21.731Z,99231.80
2018-01-31T09:03:58.592Z,99217.31
2018-01-31T09:05:34.875Z,99196.25
2018-01-31T09:07:11.727Z,99212.94
2018-01-31T09:08:48.149Z,99282.41
2018-01-31T09:10:24.916Z,99228.75
2018-01-31T09:12:01.297Z,99225.66
2018-01-31T09:13:37.633Z,99196.69
2018-01-31T09:15:16.369Z,99237.54
2018-01-31T09:16:53.197Z,99203.23
2018-01-31T09:18:29.493Z,99162.80
2018-01-31T09:20:05.990Z,99095.58
2018-01-31T09:21:43.758Z,99078.89
2018-01-31T09:23:22.324Z,99085.06
2018-01-31T09:24:58.676Z,99100.81
2018-01-31T09:26:35.243Z,99155.78
2018-01-31T09:28:11.525Z,99151.89
2018-01-31T09:29:48.513Z,99115.33
2018-01-31T09:31:27.660Z,99135.52
2018-01-31T09:33:04.036Z,99127.61
2018-01-31T09:34:40.424Z,99159.31
2018-01-31T09:36:17.342Z,99185.23
2018-01-31T09:37:53.947Z,99191.46
2018-01-31T09:39:30.859Z,99230.52
2018-01-31T09:41:07.143Z,99212.47
2018-01-31T09:42:44.625Z,99136.44
2018-01-31T09:44:20.941Z,99124.64
2018-01-31T09:45:57.244Z,99155.89
2018-01-31T09:47:34.237Z,99196.71
2018-01-31T09:49:11.030Z,99210.78
2018-01-31T09:50:47.274Z,99172.95
2018-01-31T09:52:27.008Z,99204.23
2018-01-31T09:54:00.950Z,99173.42
2018-01-31T09:55:38.413Z,99207.25
2018-01-31T09:57:15.632Z,99238.44
2018-01-31T09:58:52.023Z,99244.63
2018-01-31T10:00:30.119Z,99187.91
2018-01-31T10:02:07.111Z,99237.61
2018-01-31T10:03:43.509Z,99230.98
2018-01-31T10:05:19.935Z,99306.22
2018-01-31T10:06:56.294Z,99317.64
2018-01-31T10:08:33.055Z,99318.49
2018-01-31T10:10:09.514Z,99222.64
2018-01-31T10:11:46.231Z,99178.28
2018-01-31T10:13:22.670Z,99228.42
2018-01-31T10:14:59.606Z,99251.70
2018-01-31T10:16:36.580Z,99202.03
2018-01-31T10:18:13.148Z,99159.31
2018-01-31T10:19:50.109Z,99212.58
2018-01-31T10:21:27.656Z,99196.76
2018-01-31T10:23:04.482Z,99197.17
2018-01-31T10:24:40.868Z,99140.43
2018-01-31T10:26:17.927Z,99173.80
2018-01-31T10:27:55.537Z,99191.02
2018-01-31T10:29:32.630Z,99260.89
2018-01-31T10:31:09.228Z,99330.40
2018-01-31T10:32:45.658Z,99260.91
2018-01-31T10:34:22.837Z,99239.37
2018-01-31T10:35:59.222Z,99280.70
2018-01-31T10:37:35.758Z,99259.15
2018-01-31T10:39:12.307Z,99245.97
2018-01-31T10:40:49.248Z,99261.84
2018-01-31T10:42:25.644Z,99295.64
2018-01-31T10:44:01.984Z,99218.27
2018-01-31T10:45:38.460Z,99292.13
2018-01-31T10:47:15.322Z,99276.36
2018-01-31T10:48:52.223Z,99136.08
2018-01-31T10:50:28.703Z,99223.10
2018-01-31T10:52:05.900Z,99258.25
2018-01-31T10:57:29.856Z,99246.86
2018-01-31T10:58:33.087Z,99224.41
2018-01-31T11:00:11.661Z,99210.78
2018-01-31T11:01:48.474Z,99222.69
2018-01-31T11:03:25.634Z,99263.12
2018-01-31T11:05:02.048Z,99328.63
2018-01-31T11:06:39.286Z,99348.46
2018-01-31T11:08:15.778Z,99358.09
2018-01-31T11:09:53.042Z,99340.93
2018-01-31T11:11:29.378Z,99337.47
2018-01-31T11:13:05.984Z,99336.09
2018-01-31T11:14:42.929Z,99306.22
2018-01-31T11:16:19.481Z,99278.05
2018-01-31T11:17:56.349Z,99282.91
2018-01-31T11:19:33.174Z,99285.55
2018-01-31T11:21:09.983Z,99210.81
2018-01-31T11:22:46.292Z,99216.06
2018-01-31T11:24:23.964Z,99128.61
2018-01-31T11:26:01.293Z,99008.30
2018-01-31T11:27:37.686Z,99014.83
2018-01-31T11:29:14.640Z,99053.09
2018-01-31T11:30:51.476Z,99101.83
2018-01-31T11:32:27.862Z,99151.84
2018-01-31T11:34:04.341Z,99110.59
2018-01-31T11:35:40.832Z,99067.11
2018-01-31T11:37:18.579Z,99038.19
2018-01-31T11:38:54.873Z,98922.28
2018-01-31T11:40:31.356Z,98847.64
2018-01-31T11:42:07.852Z,98809.48
2018-01-31T11:43:44.982Z,98866.14
2018-01-31T11:45:23.495Z,98911.73
2018-01-31T11:47:00.981Z,98930.61
2018-01-31T11:48:38.410Z,98865.66
2018-01-31T11:50:16.976Z,98804.65
2018-01-31T11:51:53.668Z,98794.19
2018-01-31T11:53:30.026Z,98832.70
2018-01-31T11:55:07.154Z,98825.26
2018-01-31T11:56:43.727Z,98860.83
2018-01-31T11:58:20.153Z,98845.93
2018-01-31T11:59:56.609Z,98874.84
2018-01-31T12:01:33.116Z,98927.95
2018-01-31T12:03:10.650Z,98978.41
2018-01-31T12:04:47.248Z,98972.67
2018-01-31T12:06:23.971Z,98988.09
2018-01-31T12:08:00.585Z,99022.30
2018-01-31T12:09:39.654Z,98965.63
2018-01-31T12:11:16.015Z,98882.77
2018-01-31T12:12:53.409Z,98871.32
2018-01-31T12:15:39.511Z,98791.94
2018-01-31T12:17:16.485Z,98756.88
2018-01-31T12:19:06.928Z,98689.85
2018-01-31T12:21:54.937Z,98759.51
2018-01-31T12:25:48.672Z,98744.57
2018-01-31T12:29:43.600Z,98798.98
2018-01-31T12:34:43.105Z,98865.22
2018-01-31T12:39:38.766Z,98829.20
2018-01-31T12:41:13.052Z,98752.89
2018-01-31T12:42:47.389Z,98803.75
2018-01-31T12:44:21.616Z,98844.98
2018-01-31T12:46:11.542Z,98721.37
2018-01-31T12:48:02.345Z,98778.38
2018-01-31T12:51:59.124Z,98731.88
2018-01-31T12:53:52.608Z,98891.56
2018-01-31T12:58:52.968Z,98822.25
2018-01-31T13:01:01.478Z,98589.13
2018-01-31T13:02:51.105Z,98595.62
2018-01-31T13:05:45.250Z,98531.30
2018-01-31T13:07:29.042Z,98402.66
2018-01-31T13:09:23.878Z,98424.95
2018-01-31T13:11:16.203Z,98543.55
2018-01-31T13:14:04.119Z,98647.80
2018-01-31T13:15:57.336Z,98556.23
2018-01-31T13:17:59.825Z,98524.66
2018-01-31T13:21:53.008Z,98436.38
2018-01-31T13:23:29.027Z,98572.91
2018-01-31T13:27:33.303Z,98579.48
2018-01-31T13:29:23.554Z,98552.27
2018-01-31T13:31:15.889Z,98538.31
2018-01-31T13:34:08.324Z,98422.77
2018-01-31T13:39:02.486Z,98299.47
2018-01-31T13:43:01.806Z,98447.31
2018-01-31T13:47:53.890Z,98463.03
2018-01-31T13:51:53.722Z,98469.95
2018-01-31T13:53:46.199Z,98526.04
2018-01-31T13:55:46.340Z,98629.84
2018-01-31T13:59:43.477Z,98696.00
2018-01-31T14:01:36.578Z,98671.02
2018-01-31T14:07:36.022Z,98650.43
2018-01-31T14:10:26.900Z,98635.94
2018-01-31T14:14:26.480Z,98619.73
2018-01-31T14:17:22.512Z,98598.31
2018-01-31T14:19:16.448Z,98651.76
2018-01-31T14:27:16.857Z,98618.47
2018-01-31T14:29:10.302Z,98541.80
2018-01-31T14:36:16.388Z,98490.17
2018-01-31T14:37:53.408Z,98327.36
2018-01-31T14:39:27.514Z,98284.59
2018-01-31T14:41:02.268Z,98237.98
2018-01-31T14:42:36.918Z,98163.95
2018-01-31T14:44:11.738Z,98084.47
2018-01-31T14:47:55.775Z,97965.77
2018-01-31T14:49:31.124Z,97981.07
2018-01-31T14:51:05.984Z,97936.55
2018-01-31T14:52:40.053Z,97984.55
2018-01-31T14:54:14.322Z,98033.02
2018-01-31T14:55:48.294Z,98041.72
2018-01-31T14:57:22.592Z,98064.87
2018-01-31T14:58:56.802Z,98023.35
2018-01-31T15:00:31.416Z,98053.97
2018-01-31T15:02:06.312Z,98060.94
2018-01-31T15:03:41.119Z,98023.35
2018-01-31T15:05:15.913Z,97979.31
2018-01-31T15:06:50.211Z,98051.35
2018-01-31T15:08:24.503Z,98066.20
2018-01-31T15:09:58.449Z,98028.22
2018-01-31T15:11:32.830Z,98096.24
2018-01-31T15:13:07.536Z,98091.03
2018-01-31T15:14:41.734Z,98058.31
2018-01-31T15:16:15.933Z,97945.32
2018-01-31T15:17:49.825Z,97932.64
2018-01-31T15:19:24.136Z,97886.94
2018-01-31T15:20:59.086Z,97957.05
2018-01-31T15:22:34.113Z,97878.62
2018-01-31T15:24:08.209Z,97884.31
2018-01-31T15:25:42.410Z,97959.70
2018-01-31T15:27:17.424Z,97932.61
2018-01-31T15:28:51.716Z,97839.79
2018-01-31T15:30:27.656Z,97877.30
2018-01-31T15:32:02.715Z,97873.80
2018-01-31T15:33:36.786Z,97914.33
2018-01-31T15:35:10.858Z,98072.77
2018-01-31T15:36:44.815Z,98035.64
2018-01-31T15:38:19.938Z,97944.00
2018-01-31T15:39:54.632Z,97982.80
2018-01-31T15:41:29.462Z,97960.96
2018-01-31T15:43:04.146Z,97947.91
2018-01-31T15:44:38.519Z,98015.59
2018-01-31T15:46:12.780Z,98123.39
2018-01-31T15:47:46.689Z,98163.13
2018-01-31T15:49:21.516Z,98233.09
2018-01-31T15:50:56.629Z,98086.78
2018-01-31T15:52:31.905Z,98129.06
2018-01-31T15:54:05.960Z,98061.86
2018-01-31T15:55:39.985Z,98163.59
2018-01-31T15:57:14.386Z,98015.56
2018-01-31T15:58:48.440Z,98046.15
2018-01-31T16:00:25.433Z,98050.98
2018-01-31T16:01:59.595Z,97973.71
2018-01-31T16:03:33.598Z,98053.64
2018-01-31T16:05:08.473Z,98061.02
2018-01-31T16:06:42.432Z,98102.90
2018-01-31T16:08:16.423Z,98019.56
2018-01-31T16:09:51.833Z,98033.52
2018-01-31T16:11:25.885Z,97906.59
2018-01-31T16:12:59.997Z,97936.55
2018-01-31T16:14:38.786Z,97954.50
2018-01-31T16:16:14.015Z,97894.72
2018-01-31T16:17:50.063Z,97952.77
2018-01-31T16:19:42.444Z,97985.05
2018-01-31T16:21:25.209Z,97960.63
2018-01-31T16:23:02.991Z,97974.60
2018-01-31T16:24:39.059Z,97907.46
2018-01-31T16:26:15.155Z,97966.23
2018-01-31T16:28:04.646Z,98000.81
2018-01-31T16:30:05.705Z,97934.83
2018-01-31T16:31:57.005Z,97842.07
2018-01-31T16:33:38.603Z,97856.87
2018-01-31T16:35:15.086Z,97927.93
2018-01-31T16:36:51.692Z,97918.73
2018-01-31T16:38:28.041Z,97916.11
2018-01-31T16:40:05.034Z,97906.08
2018-01-31T16:41:42.852Z,97892.59
2018-01-31T16:43:19.068Z,97837.64
2018-01-31T16:44:55.138Z,97776.64
2018-01-31T16:46:31.680Z,97800.63
2018-01-31T16:48:07.796Z,97812.81
2018-01-31T16:49:44.869Z,97793.25
2018-01-31T16:51:21.728Z,97795.41
2018-01-31T16:52:58.543Z,97769.69
2018-01-31T16:54:35.964Z,97753.55
2018-01-31T16:56:12.075Z,97739.62
2018-01-31T16:57:48.400Z,97710.84
2018-01-31T16:59:25.456Z,97654.75
2018-01-31T17:01:02.753Z,97652.10
2018-01-31T17:02:39.501Z,97676.11
2018-01-31T17:04:17.079Z,97650.81
2018-01-31T17:05:54.923Z,97638.18
2018-01-31T17:07:30.927Z,97642.08
2018-01-31T17:09:08.006Z,97639.47
2018-01-31T17:10:44.929Z,97727.05
2018-01-31T17:12:28.020Z,97826.81
2018-01-31T17:14:06.278Z,97861.23
2018-01-31T17:15:43.028Z,97871.70
2018-01-31T17:17:20.078Z,97795.90
2018-01-31T17:18:57.054Z,97811.98
2018-01-31T17:20:34.127Z,97826.28
2018-01-31T17:22:12.642Z,97825.02
2018-01-31T17:23:49.433Z,97779.69
2018-01-31T17:25:27.524Z,97800.20
2018-01-31T17:27:10.353Z,97686.03
2018-01-31T17:31:10.225Z,97806.72
2018-01-31T17:32:47.188Z,97636.03
2018-01-31T17:34:24.556Z,97512.49
2018-01-31T17:36:02.112Z,97516.82
2018-01-31T17:37:40.849Z,97686.03
2018-01-31T17:39:17.662Z,97769.33
2018-01-31T17:40:54.858Z,97759.23
2018-01-31T17:42:32.088Z,97673.43
2018-01-31T17:44:09.128Z,97694.77
2018-01-31T17:45:47.871Z,97754.00
2018-01-31T17:47:25.528Z,97772.27
2018-01-31T17:49:03.093Z,97831.61
2018-01-31T17:50:40.339Z,97929.66
2018-01-31T17:52:17.168Z,97930.95
2018-01-31T17:53:54.215Z,97948.38
2018-01-31T17:55:31.621Z,97870.78
2018-01-31T17:57:09.900Z,97816.78
2018-01-31T17:58:49.330Z,97802.81
2018-01-31T18:00:33.807Z,97832.94
2018-01-31T18:02:19.992Z,97806.72
2018-01-31T18:04:03.812Z,97726.98
2018-01-31T18:05:46.836Z,97721.35
2018-01-31T18:07:32.897Z,97705.28
2018-01-31T18:09:14.510Z,97632.53
2018-01-31T18:10:56.067Z,97601.22
2018-01-31T18:12:37.935Z,97507.67
2018-01-31T18:14:15.685Z,97542.09
2018-01-31T18:15:55.113Z,97617.38
2018-01-31T18:17:38.630Z,97720.46
2018-01-31T18:19:20.162Z,97674.75
2018-01-31T18:20:58.737Z,97728.80
2018-01-31T18:22:42.156Z,97843.36
2018-01-31T18:24:22.132Z,97934.92
2018-01-31T18:26:07.844Z,97971.55
2018-01-31T18:27:46.323Z,98007.80
2018-01-31T18:29:22.860Z,98032.19
2018-01-31T18:31:00.078Z,98042.30
2018-01-31T18:32:36.687Z,98022.62
2018-01-31T18:34:13.879Z,97996.37
2018-01-31T18:35:50.390Z,98013.00
2018-01-31T18:37:26.934Z,98074.98
2018-01-31T18:39:04.366Z,98113.41
2018-01-31T18:40:42.188Z,98016.48
2018-01-31T18:42:18.552Z,97871.80
2018-01-31T18:43:55.178Z,97897.03
2018-01-31T18:45:31.659Z,97978.11
2018-01-31T18:47:09.387Z,97959.36
2018-01-31T18:48:45.898Z,98002.63
2018-01-31T18:50:24.008Z,98054.56
2018-01-31T18:52:01.598Z,98192.94
2018-01-31T18:53:41.416Z,98290.36
2018-01-31T18:55:19.209Z,98344.55
2018-01-31T18:56:59.195Z,98307.42
2018-01-31T18:58:36.320Z,98315.84
2018-01-31T19:00:15.171Z,98399.78
2018-01-31T19:01:57.994Z,98395.77
2018-01-31T19:03:36.382Z,98322.30
2018-01-31T19:05:13.623Z,98338.46
2018-01-31T19:06:50.391Z,98176.38
2018-01-31T19:10:07.514Z,98296.50
2018-01-31T19:11:44.259Z,98331.05
2018-01-31T19:13:21.652Z,98325.34
2018-01-31T19:15:02.346Z,98343.73
2018-01-31T19:16:43.720Z,98306.62
2018-01-31T19:18:22.049Z,98211.73
2018-01-31T19:22:26.365Z,98182.88
2018-01-31T19:24:04.632Z,98166.27
2018-01-31T19:25:42.131Z,98141.80
2018-01-31T19:27:19.384Z,98083.27
2018-01-31T19:28:56.538Z,98073.26
2018-01-31T19:30:33.651Z,98050.19
2018-01-31T19:32:10.083Z,98042.27
2018-01-31T19:33:46.575Z,97999.08
2018-01-31T19:35:31.115Z,97803.84
2018-01-31T19:37:10.145Z,97822.53
2018-01-31T19:38:47.586Z,97951.97
2018-01-31T19:40:26.069Z,98004.32
2018-01-31T19:42:03.614Z,97949.79
2018-01-31T19:43:41.259Z,98044.48
2018-01-31T19:45:34.857Z,98012.27
2018-01-31T19:47:13.904Z,97947.17
2018-01-31T19:48:55.495Z,97977.28
2018-01-31T19:50:37.378Z,98012.27
2018-01-31T19:52:15.044Z,97992.06
2018-01-31T19:53:53.644Z,97849.05
2018-01-31T19:55:33.198Z,97869.95
2018-01-31T19:57:16.577Z,97835.55
2018-01-31T19:58:53.353Z,97630.84
2018-01-31T20:00:38.806Z,97706.23
2018-01-31T20:02:18.262Z,97718.87
2018-01-31T20:03:58.927Z,97734.91
2018-01-31T20:05:37.600Z,97795.50
2018-01-31T20:07:51.710Z,97696.61
2018-01-31T20:09:28.689Z,97712.69
2018-01-31T20:11:05.759Z,97788.95
2018-01-31T20:12:43.445Z,97916.70
2018-01-31T20:14:20.893Z,97994.74
2018-01-31T20:16:03.952Z,97931.91
2018-01-31T20:19:36.405Z,97798.11
2018-01-31T20:21:20.108Z,97881.33
2018-01-31T20:23:00.053Z,97900.08
2018-01-31T20:24:43.184Z,97965.89
2018-01-31T20:26:23.794Z,97993.81
2018-01-31T20:28:00.454Z,97919.68
2018-01-31T20:29:37.163Z,97956.34
2018-01-31T20:31:14.209Z,97970.75
2018-01-31T20:32:50.659Z,98055.39
2018-01-31T20:34:30.680Z,98158.84
2018-01-31T20:36:08.179Z,98034.81
2018-01-31T20:37:45.125Z,98061.55
2018-01-31T20:39:22.196Z,98080.72
2018-01-31T20:41:00.476Z,98027.91
2018-01-31T20:42:36.985Z,98074.16
2018-01-31T20:44:14.590Z,98022.21
2018-01-31T20:47:26.255Z,97784.55
2018-01-31T20:49:03.568Z,97872.59
2018-01-31T20:50:41.080Z,97883.09
2018-01-31T20:52:17.959Z,97948.41
2018-01-31T20:53:54.923Z,97937.94
2018-01-31T20:55:32.580Z,97753.64
2018-01-31T20:57:10.683Z,97713.64
2018-01-31T20:58:47.590Z,97794.20
2018-01-31T21:00:24.346Z,97859.98
2018-01-31T21:02:01.910Z,97911.41
2018-01-31T21:03:39.079Z,97966.75
2018-01-31T21:05:17.071Z,97929.31
2018-01-31T21:06:53.838Z,97872.56
2018-01-31T21:08:31.885Z,97915.28
2018-01-31T21:10:08.431Z,97879.92
2018-01-31T21:11:45.391Z,97749.73
2018-01-31T21:13:22.050Z,97627.77
2018-01-31T21:14:58.658Z,97620.79
2018-01-31T21:16:35.687Z,97720.49
2018-01-31T21:18:13.337Z,97851.70
2018-01-31T21:19:49.748Z,97776.64
2018-01-31T21:21:27.806Z,97744.05
2018-01-31T21:23:04.780Z,97801.16
2018-01-31T21:24:41.384Z,97760.55
2018-01-31T21:26:17.866Z,97680.91
2018-01-31T21:27:54.505Z,97743.68
2018-01-31T21:29:32.228Z,97727.94
2018-01-31T21:31:09.633Z,97671.28
2018-01-31T21:32:46.162Z,97587.27
2018-01-31T21:34:22.850Z,97515.10
2018-01-31T21:36:01.601Z,97403.77
2018-01-31T21:37:38.274Z,97476.35
2018-01-31T21:39:16.048Z,97548.97
2018-01-31T21:40:53.697Z,97704.84
2018-01-31T21:42:30.478Z,97656.13
2018-01-31T21:44:07.748Z,97545.10
2018-01-31T21:45:44.954Z,97600.76
2018-01-31T21:47:22.355Z,97744.91
2018-01-31T21:48:59.242Z,97859.52
2018-01-31T21:50:35.836Z,97728.27
2018-01-31T21:52:14.060Z,97651.30
2018-01-31T21:53:51.368Z,97693.91
2018-01-31T21:55:28.247Z,97741.83
2018-01-31T21:57:05.409Z,97740.48
2018-01-31T21:58:42.682Z,97595.91
2018-01-31T22:00:19.283Z,97582.98
2018-01-31T22:01:57.156Z,97618.14
2018-01-31T22:03:34.528Z,97677.36
2018-01-31T22:05:11.533Z,97621.72
2018-01-31T22:06:48.993Z,97568.17
2018-01-31T22:08:26.948Z,97515.96
2018-01-31T22:10:03.539Z,97658.28
2018-01-31T22:11:41.134Z,97620.33
2018-01-31T22:13:18.664Z,97580.27
2018-01-31T22:14:55.306Z,97699.16
2018-01-31T22:16:33.295Z,97624.27